createdAt,value
2023-02-18T00:01:04.733Z,98507.28
2023-02-18T00:03:31.531Z,98506.31
2023-02-18T00:05:58.677Z,98503.75
2023-02-18T00:08:25.488Z,98493.81
2023-02-18T00:10:53.283Z,98501.06
2023-02-18T00:13:20.062Z,98492.59
2023-02-18T00:15:47.159Z,98487.22
2023-02-18T00:18:13.955Z,98485.63
2023-02-18T00:20:42.137Z,98491.13
2023-02-18T00:23:08.954Z,98494.53
2023-02-18T00:25:36.051Z,98498.00
2023-02-18T00:28:02.793Z,98500.69
2023-02-18T00:30:30.050Z,98498.13
2023-02-18T00:32:56.858Z,98501.53
2023-02-18T00:35:23.995Z,98505.06
2023-02-18T00:37:53.887Z,98510.47
2023-02-18T00:40:21.049Z,98512.44
2023-02-18T00:42:47.808Z,98538.28
2023-02-18T00:45:15.113Z,98538.16
2023-02-18T00:47:41.882Z,98539.84
2023-02-18T00:50:09.552Z,98554.19
2023-02-18T00:52:36.368Z,98563.13
2023-02-18T00:55:03.653Z,98569.72
2023-02-18T00:57:30.403Z,98582.00
2023-02-18T00:59:57.452Z,98592.78
2023-02-18T01:02:24.201Z,98589.34
2023-02-18T01:04:51.361Z,98592.03
2023-02-18T01:07:18.215Z,98597.44
2023-02-18T01:09:45.320Z,98599.97
2023-02-18T01:12:12.117Z,98605.91
2023-02-18T01:14:39.179Z,98603.03
2023-02-18T01:17:05.944Z,98608.59
2023-02-18T01:19:32.960Z,98612.25
2023-02-18T01:21:59.756Z,98617.03
2023-02-18T01:24:26.780Z,98614.19
2023-02-18T01:26:53.515Z,98606.88
2023-02-18T01:29:20.546Z,98600.88
2023-02-18T01:31:47.404Z,98609.69
2023-02-18T01:34:15.361Z,98599.03
2023-02-18T01:36:42.163Z,98598.28
2023-02-18T01:39:09.327Z,98612.75
2023-02-18T01:41:36.157Z,98615.31
2023-02-18T01:44:14.268Z,98623.41
2023-02-18T01:46:41.111Z,98618.84
2023-02-18T01:49:08.226Z,98603.81
2023-02-18T01:51:37.989Z,98596.34
2023-02-18T01:54:07.945Z,98608.97
2023-02-18T01:56:42.846Z,98606.38
2023-02-18T01:59:14.438Z,98602.19
2023-02-18T02:01:42.650Z,98597.81
2023-02-18T02:04:09.700Z,98593.25
2023-02-18T02:06:36.557Z,98588.97
2023-02-18T02:09:04.682Z,98584.34
2023-02-18T02:11:34.431Z,98588.84
2023-02-18T02:14:01.429Z,98587.28
2023-02-18T02:16:34.988Z,98590.94
2023-02-18T02:19:16.920Z,98591.28
2023-02-18T02:22:14.432Z,98592.28
2023-02-18T02:24:59.911Z,98591.53
2023-02-18T02:27:38.437Z,98588.72
2023-02-18T02:30:31.570Z,98595.44
2023-02-18T02:33:06.501Z,98593.22
2023-02-18T02:36:24.979Z,98602.31
2023-02-18T02:39:10.556Z,98607.06
2023-02-18T02:42:06.755Z,98601.91
2023-02-18T02:44:40.346Z,98605.56
2023-02-18T02:47:31.853Z,98609.84
2023-02-18T02:50:12.414Z,98603.97
2023-02-18T02:52:51.037Z,98610.09
2023-02-18T02:55:17.858Z,98611.94
2023-02-18T02:57:52.633Z,98611.94
2023-02-18T03:00:58.206Z,98616.31
2023-02-18T03:03:34.299Z,98628.09
2023-02-18T03:06:19.957Z,98620.25
2023-02-18T03:09:33.661Z,98635.63
2023-02-18T03:12:26.460Z,98636.75
2023-02-18T03:14:58.690Z,98634.41
2023-02-18T03:17:28.049Z,98645.06
2023-02-18T03:20:04.148Z,98636.88
2023-02-18T03:22:32.604Z,98629.75
2023-02-18T03:24:59.640Z,98629.25
2023-02-18T03:27:35.096Z,98642.81
2023-02-18T03:30:11.121Z,98632.94
2023-02-18T03:32:37.960Z,98631.22
2023-02-18T03:35:09.801Z,98630.47
2023-02-18T03:37:39.156Z,98643.22
2023-02-18T03:40:06.816Z,98648.59
2023-02-18T03:42:33.573Z,98652.25
2023-02-18T03:45:00.644Z,98644.91
2023-02-18T03:47:27.429Z,98648.69
2023-02-18T03:49:54.569Z,98647.97
2023-02-18T03:52:21.476Z,98649.44
2023-02-18T03:54:48.587Z,98651.50
2023-02-18T03:57:15.341Z,98657.84
2023-02-18T03:59:42.377Z,98659.59
2023-02-18T04:02:09.191Z,98658.19
2023-02-18T04:04:36.382Z,98665.88
2023-02-18T04:07:03.268Z,98662.34
2023-02-18T04:09:30.323Z,98668.81
2023-02-18T04:11:57.077Z,98669.56
2023-02-18T04:14:24.188Z,98679.47
2023-02-18T04:16:50.993Z,98668.81
2023-02-18T04:19:18.085Z,98665.25
2023-02-18T04:21:44.816Z,98669.66
2023-02-18T04:24:11.900Z,98674.94
2023-02-18T04:26:38.725Z,98666.25
2023-02-18T04:29:05.961Z,98672.38
2023-02-18T04:31:32.906Z,98674.44
2023-02-18T04:33:59.990Z,98675.72
2023-02-18T04:36:26.986Z,98677.78
2023-02-18T04:38:54.061Z,98677.56
2023-02-18T04:41:20.784Z,98680.25
2023-02-18T04:43:47.896Z,98684.69
2023-02-18T04:46:14.675Z,98692.34
2023-02-18T04:48:41.723Z,98697.63
2023-02-18T04:51:08.642Z,98692.47
2023-02-18T04:53:35.718Z,98683.66
2023-02-18T04:56:02.481Z,98693.31
2023-02-18T04:58:29.533Z,98693.19
2023-02-18T05:01:02.632Z,98701.59
2023-02-18T05:03:30.012Z,98700.03
2023-02-18T05:05:56.914Z,98712.38
2023-02-18T05:08:24.061Z,98705.00
2023-02-18T05:10:50.847Z,98710.88
2023-02-18T05:13:18.121Z,98717.22
2023-02-18T05:15:44.906Z,98715.28
2023-02-18T05:18:11.962Z,98711.97
2023-02-18T05:20:38.959Z,98705.72
2023-02-18T05:23:06.016Z,98709.16
2023-02-18T05:25:32.808Z,98707.47
2023-02-18T05:27:59.908Z,98701.19
2023-02-18T05:30:26.683Z,98714.66
2023-02-18T05:32:53.819Z,98712.06
2023-02-18T05:35:20.608Z,98722.72
2023-02-18T05:37:47.643Z,98715.63
2023-02-18T05:40:14.395Z,98720.50
2023-02-18T05:42:41.459Z,98728.31
2023-02-18T05:45:08.755Z,98731.25
2023-02-18T05:47:35.831Z,98735.97
2023-02-18T05:50:03.145Z,98730.16
2023-02-18T05:52:30.179Z,98730.16
2023-02-18T05:54:56.981Z,98728.31
2023-02-18T05:57:24.045Z,98744.47
2023-02-18T05:59:50.784Z,98737.28
2023-02-18T06:02:17.915Z,98738.13
2023-02-18T06:04:44.685Z,98747.94
2023-02-18T06:07:11.944Z,98744.25
2023-02-18T06:09:38.701Z,98750.50
2023-02-18T06:12:05.943Z,98751.06
2023-02-18T06:14:32.754Z,98754.47
2023-02-18T06:16:59.861Z,98758.69
2023-02-18T06:19:26.658Z,98755.78
2023-02-18T06:21:53.999Z,98751.34
2023-02-18T06:24:20.777Z,98752.22
2023-02-18T06:26:47.832Z,98744.34
2023-02-18T06:29:14.582Z,98753.09
2023-02-18T06:31:41.705Z,98752.09
2023-02-18T06:34:08.469Z,98750.25
2023-02-18T06:36:35.517Z,98754.78
2023-02-18T06:39:03.975Z,98754.78
2023-02-18T06:41:31.053Z,98749.63
2023-02-18T06:43:57.836Z,98752.09
2023-02-18T06:46:24.875Z,98760.16
2023-02-18T06:48:51.776Z,98745.00
2023-02-18T06:51:19.547Z,98747.81
2023-02-18T06:53:46.321Z,98750.25
2023-02-18T06:56:13.399Z,98758.00
2023-02-18T06:58:40.165Z,98763.38
2023-02-18T07:01:07.354Z,98764.47
2023-02-18T07:03:34.256Z,98762.75
2023-02-18T07:06:01.313Z,98768.13
2023-02-18T07:08:28.171Z,98770.94
2023-02-18T07:10:55.255Z,98762.00
2023-02-18T07:13:21.983Z,98766.28
2023-02-18T07:15:49.050Z,98761.78
2023-02-18T07:18:15.797Z,98769.63
2023-02-18T07:20:42.831Z,98774.34
2023-02-18T07:23:11.243Z,98768.03
2023-02-18T07:25:38.354Z,98771.44
2023-02-18T07:28:05.311Z,98783.94
2023-02-18T07:30:32.466Z,98778.34
2023-02-18T07:32:59.288Z,98770.16
2023-02-18T07:35:26.561Z,98770.28
2023-02-18T07:37:53.320Z,98760.25
2023-02-18T07:40:21.217Z,98770.03
2023-02-18T07:42:48.415Z,98766.25
2023-02-18T07:45:15.712Z,98770.91
2023-02-18T07:47:42.608Z,98768.22
2023-02-18T07:50:10.161Z,98765.41
2023-02-18T07:52:36.970Z,98762.84
2023-02-18T07:55:04.130Z,98768.84
2023-02-18T07:57:30.891Z,98771.44
2023-02-18T07:59:58.017Z,98768.75
2023-02-18T08:02:25.087Z,98775.19
2023-02-18T08:04:52.286Z,98771.44
2023-02-18T08:07:19.619Z,98764.94
2023-02-18T08:09:46.735Z,98766.78
2023-02-18T08:12:13.518Z,98772.16
2023-02-18T08:14:41.702Z,98771.22
2023-02-18T08:17:08.446Z,98768.41
2023-02-18T08:19:35.490Z,98774.00
2023-02-18T08:22:03.122Z,98763.25
2023-02-18T08:24:30.204Z,98770.09
2023-02-18T08:27:01.606Z,98766.47
2023-02-18T08:29:29.182Z,98770.72
2023-02-18T08:31:58.165Z,98764.38
2023-02-18T08:34:26.002Z,98757.69
2023-02-18T08:36:52.809Z,98766.75
2023-02-18T08:39:19.920Z,98772.03
2023-02-18T08:41:46.675Z,98768.44
2023-02-18T08:44:13.812Z,98764.91
2023-02-18T08:46:40.644Z,98772.75
2023-02-18T08:49:07.911Z,98761.25
2023-02-18T08:51:34.760Z,98773.59
2023-02-18T08:54:02.058Z,98777.28
2023-02-18T08:56:28.884Z,98766.53
2023-02-18T08:58:55.987Z,98763.34
2023-02-18T09:01:22.779Z,98765.09
2023-02-18T09:03:49.951Z,98764.09
2023-02-18T09:06:16.784Z,98768.84
2023-02-18T09:08:43.916Z,98772.31
2023-02-18T09:11:11.144Z,98768.13
2023-02-18T09:13:38.523Z,98771.91
2023-02-18T09:16:11.031Z,98776.81
2023-02-18T09:18:38.202Z,98773.50
2023-02-18T09:21:06.711Z,98779.50
2023-02-18T09:23:34.085Z,98774.13
2023-02-18T09:26:00.958Z,98768.00
2023-02-18T09:28:28.182Z,98772.44
2023-02-18T09:30:54.959Z,98765.81
2023-02-18T09:33:22.190Z,98766.78
2023-02-18T09:35:48.974Z,98759.47
2023-02-18T09:38:17.286Z,98750.19
2023-02-18T09:40:46.879Z,98745.25
2023-02-18T09:43:39.118Z,98759.81
2023-02-18T09:46:22.248Z,98754.31
2023-02-18T09:48:49.470Z,98748.81
2023-02-18T09:51:16.537Z,98750.88
2023-02-18T09:53:45.248Z,98761.16
2023-02-18T09:56:16.858Z,98752.81
2023-02-18T09:58:43.954Z,98757.00
2023-02-18T10:01:34.012Z,98762.41
2023-02-18T10:04:10.576Z,98756.78
2023-02-18T10:06:37.875Z,98747.09
2023-02-18T10:09:10.065Z,98742.22
2023-02-18T10:11:51.733Z,98748.13
2023-02-18T10:14:18.829Z,98745.53
2023-02-18T10:16:45.626Z,98739.31
2023-02-18T10:19:33.147Z,98738.22
2023-02-18T10:22:01.484Z,98735.53
2023-02-18T10:24:46.872Z,98735.03
2023-02-18T10:27:19.056Z,98736.72
2023-02-18T10:29:46.098Z,98732.56
2023-02-18T10:32:21.973Z,98737.94
2023-02-18T10:34:54.635Z,98730.59
2023-02-18T10:37:35.409Z,98729.88
2023-02-18T10:40:30.339Z,98724.47
2023-02-18T10:43:22.006Z,98705.16
2023-02-18T10:46:23.272Z,98704.41
2023-02-18T10:49:12.538Z,98703.44
2023-02-18T10:51:40.234Z,98697.31
2023-02-18T10:54:07.033Z,98693.63
2023-02-18T10:56:34.608Z,98687.53
2023-02-18T10:59:12.472Z,98686.56
2023-02-18T11:01:42.193Z,98688.25
2023-02-18T11:04:13.601Z,98680.28
2023-02-18T11:06:42.739Z,98668.56
2023-02-18T11:09:20.487Z,98671.38
2023-02-18T11:11:50.651Z,98670.25
2023-02-18T11:14:39.639Z,98669.41
2023-02-18T11:17:33.253Z,98663.91
2023-02-18T11:20:01.835Z,98659.47
2023-02-18T11:22:33.586Z,98648.88
2023-02-18T11:25:01.570Z,98643.81
2023-02-18T11:27:50.302Z,98634.88
2023-02-18T11:30:21.935Z,98633.91
2023-02-18T11:33:19.021Z,98622.06
2023-02-18T11:36:24.126Z,98613.31
2023-02-18T11:38:56.540Z,98613.22
2023-02-18T11:41:36.227Z,98604.16
2023-02-18T11:44:04.986Z,98598.06
2023-02-18T11:46:31.786Z,98599.03
2023-02-18T11:52:04.529Z,98577.38
2023-02-18T11:54:31.867Z,98574.16
2023-02-18T11:57:06.368Z,98568.56
2023-02-18T11:59:35.515Z,98562.31
2023-02-18T12:02:11.315Z,98551.91
2023-02-18T12:04:46.512Z,98547.75
2023-02-18T12:07:22.623Z,98543.97
2023-02-18T12:09:52.132Z,98538.81
2023-02-18T12:12:28.679Z,98528.06
2023-02-18T12:14:55.995Z,98523.75
2023-02-18T12:17:46.491Z,98520.22
2023-02-18T12:20:22.922Z,98501.88
2023-02-18T12:23:11.401Z,98509.09
2023-02-18T12:25:49.997Z,98491.22
2023-02-18T12:28:47.971Z,98490.25
2023-02-18T12:31:39.941Z,98480.78
2023-02-18T12:34:23.256Z,98469.19
2023-02-18T12:36:56.562Z,98459.66
2023-02-18T12:39:26.718Z,98441.66
2023-02-18T12:41:55.934Z,98434.19
2023-02-18T12:44:26.135Z,98425.16
2023-02-18T12:46:53.719Z,98427.94
2023-02-18T12:49:32.566Z,98420.38
2023-02-18T12:52:05.767Z,98415.34
2023-02-18T12:55:28.342Z,98403.59
2023-02-18T12:58:13.595Z,98404.09
2023-02-18T13:01:01.532Z,98377.78
2023-02-18T13:03:42.015Z,98375.44
2023-02-18T13:06:42.247Z,98368.38
2023-02-18T13:09:12.416Z,98367.66
2023-02-18T13:12:01.011Z,98367.25
2023-02-18T13:14:33.300Z,98350.00
2023-02-18T13:17:00.462Z,98335.81
2023-02-18T13:19:42.586Z,98326.75
2023-02-18T13:22:09.884Z,98321.63
2023-02-18T13:24:41.058Z,98306.56
2023-02-18T13:27:31.785Z,98314.00
2023-02-18T13:30:14.200Z,98313.28
2023-02-18T13:32:51.436Z,98311.31
2023-02-18T13:35:33.733Z,98296.41
2023-02-18T13:38:20.336Z,98285.78
2023-02-18T13:40:47.455Z,98290.44
2023-02-18T13:43:21.717Z,98295.69
2023-02-18T13:46:03.596Z,98275.38
2023-02-18T13:48:30.576Z,98271.59
2023-02-18T13:51:03.805Z,98261.81
2023-02-18T13:53:37.757Z,98266.34
2023-02-18T13:56:21.939Z,98261.31
2023-02-18T13:58:49.975Z,98248.78
2023-02-18T14:01:21.279Z,98247.34
2023-02-18T14:03:55.079Z,98245.97
2023-02-18T14:06:25.222Z,98238.50
2023-02-18T14:08:52.541Z,98220.13
2023-02-18T14:11:19.594Z,98217.09
2023-02-18T14:13:56.180Z,98215.78
2023-02-18T14:16:23.235Z,98205.22
2023-02-18T14:18:58.204Z,98204.63
2023-02-18T14:21:37.619Z,98194.56
2023-02-18T14:24:07.279Z,98184.53
2023-02-18T14:26:36.579Z,98184.53
2023-02-18T14:29:12.585Z,98180.09
2023-02-18T14:32:02.365Z,98175.06
2023-02-18T14:34:29.163Z,98175.94
2023-02-18T14:37:03.247Z,98168.84
2023-02-18T14:39:58.244Z,98161.47
2023-02-18T14:42:37.957Z,98159.91
2023-02-18T14:45:08.222Z,98157.47
2023-02-18T14:47:42.673Z,98146.56
2023-02-18T14:50:16.612Z,98135.56
2023-02-18T14:53:20.646Z,98126.25
2023-02-18T14:55:53.583Z,98127.72
2023-02-18T14:58:26.599Z,98130.41
2023-02-18T15:00:53.384Z,98125.50
2023-02-18T15:03:22.384Z,98122.34
2023-02-18T15:05:52.188Z,98117.09
2023-02-18T15:08:23.704Z,98109.94
2023-02-18T15:11:06.519Z,98101.25
2023-02-18T15:13:36.763Z,98097.25
2023-02-18T15:16:07.908Z,98089.34
2023-02-18T15:18:41.248Z,98087.53
2023-02-18T15:21:10.309Z,98077.25
2023-02-18T15:23:39.049Z,98079.56
2023-02-18T15:26:05.951Z,98070.59
2023-02-18T15:28:33.410Z,98071.75
2023-02-18T15:31:01.466Z,98066.66
2023-02-18T15:33:28.750Z,98064.09
2023-02-18T15:36:06.587Z,98059.31
2023-02-18T15:38:33.710Z,98048.41
2023-02-18T15:41:00.647Z,98049.25
2023-02-18T15:43:27.955Z,98054.19
2023-02-18T15:45:56.424Z,98045.84
2023-02-18T15:48:25.389Z,98045.44
2023-02-18T15:50:54.693Z,98035.63
2023-02-18T15:53:22.690Z,98036.34
2023-02-18T15:55:54.709Z,98042.47
2023-02-18T15:58:32.734Z,98039.63
2023-02-18T16:01:05.470Z,98025.31
2023-02-18T16:03:37.354Z,98030.84
2023-02-18T16:06:10.349Z,98037.69
2023-02-18T16:08:37.505Z,98035.78
2023-02-18T16:11:06.822Z,98033.41
2023-02-18T16:13:34.797Z,98031.41
2023-02-18T16:16:01.595Z,98032.03
2023-02-18T16:18:39.270Z,98039.22
2023-02-18T16:21:18.310Z,98045.88
2023-02-18T16:23:58.635Z,98058.22
2023-02-18T16:26:28.171Z,98054.28
2023-02-18T16:28:55.611Z,98064.47
2023-02-18T16:31:29.239Z,98074.97
2023-02-18T16:33:59.185Z,98068.19
2023-02-18T16:36:26.287Z,98072.25
2023-02-18T16:38:53.467Z,98073.16
2023-02-18T16:41:20.284Z,98065.31
2023-02-18T16:43:47.464Z,98060.66
2023-02-18T16:46:18.817Z,98069.31
2023-02-18T16:48:46.819Z,98077.66
2023-02-18T16:51:33.254Z,98079.94
2023-02-18T16:54:00.593Z,98082.78
2023-02-18T16:56:30.546Z,98096.00
2023-02-18T16:58:57.606Z,98097.00
2023-02-18T17:01:29.069Z,98089.75
2023-02-18T17:03:57.414Z,98105.22
2023-02-18T17:06:24.468Z,98103.63
2023-02-18T17:08:51.699Z,98111.31
2023-02-18T17:11:24.018Z,98114.72
2023-02-18T17:13:51.724Z,98127.47
2023-02-18T17:16:18.764Z,98130.16
2023-02-18T17:18:46.045Z,98125.03
2023-02-18T17:21:17.247Z,98123.75
2023-02-18T17:23:44.503Z,98128.00
2023-02-18T17:26:24.955Z,98129.84
2023-02-18T17:28:55.686Z,98141.22
2023-02-18T17:31:28.527Z,98130.88
2023-02-18T17:33:56.809Z,98133.44
2023-02-18T17:36:23.630Z,98133.72
2023-02-18T17:38:50.687Z,98131.28
2023-02-18T17:41:17.444Z,98120.75
2023-02-18T17:43:44.759Z,98132.88
2023-02-18T17:46:16.042Z,98147.19
2023-02-18T17:48:43.509Z,98138.25
2023-02-18T17:51:24.640Z,98149.03
2023-02-18T17:53:51.878Z,98154.41
2023-02-18T17:56:18.707Z,98156.53
2023-02-18T17:58:46.552Z,98167.81
2023-02-18T18:01:13.489Z,98163.41
2023-02-18T18:03:40.687Z,98167.13
2023-02-18T18:06:14.842Z,98167.56
2023-02-18T18:08:41.953Z,98162.56
2023-02-18T18:11:10.487Z,98163.28
2023-02-18T18:13:38.711Z,98169.69
2023-02-18T18:16:05.624Z,98180.31
2023-02-18T18:18:32.716Z,98181.44
2023-02-18T18:21:00.373Z,98181.44
2023-02-18T18:23:29.341Z,98181.16
2023-02-18T18:25:57.311Z,98190.47
2023-02-18T18:28:24.685Z,98188.91
2023-02-18T18:30:52.465Z,98202.84
2023-02-18T18:33:24.753Z,98201.88
2023-02-18T18:35:53.022Z,98189.38
2023-02-18T18:38:20.895Z,98194.06
2023-02-18T18:40:48.142Z,98199.69
2023-02-18T18:43:22.301Z,98217.59
2023-02-18T18:45:49.237Z,98206.06
2023-02-18T18:48:16.492Z,98216.97
2023-02-18T18:50:43.419Z,98216.13
2023-02-18T18:53:16.684Z,98207.91
2023-02-18T18:55:43.612Z,98216.69
2023-02-18T18:58:10.695Z,98222.34
2023-02-18T19:00:41.604Z,98215.00
2023-02-18T19:03:11.438Z,98232.28
2023-02-18T19:05:39.987Z,98229.19
2023-02-18T19:08:07.704Z,98230.16
2023-02-18T19:10:42.776Z,98236.56
2023-02-18T19:13:13.952Z,98241.06
2023-02-18T19:15:40.813Z,98234.00
2023-02-18T19:18:08.021Z,98237.53
2023-02-18T19:20:38.127Z,98241.06
2023-02-18T19:23:05.270Z,98250.03
2023-02-18T19:25:32.343Z,98243.63
2023-02-18T19:27:59.421Z,98252.72
2023-02-18T19:30:27.940Z,98254.41
2023-02-18T19:32:56.358Z,98251.00
2023-02-18T19:35:23.461Z,98260.69
2023-02-18T19:37:50.674Z,98256.28
2023-02-18T19:40:19.756Z,98248.06
2023-02-18T19:42:46.840Z,98256.41
2023-02-18T19:45:13.676Z,98262.63
2023-02-18T19:47:40.848Z,98255.56
2023-02-18T19:50:08.390Z,98278.66
2023-02-18T19:52:35.516Z,98272.44
2023-02-18T19:55:02.310Z,98273.28
2023-02-18T19:57:29.372Z,98271.47
2023-02-18T19:59:56.139Z,98277.69
2023-02-18T20:02:24.657Z,98280.38
2023-02-18T20:04:51.600Z,98275.59
2023-02-18T20:07:19.692Z,98280.13
2023-02-18T20:09:46.734Z,98288.81
2023-02-18T20:12:13.878Z,98279.13
2023-02-18T20:14:40.746Z,98275.47
2023-02-18T20:17:07.831Z,98281.69
2023-02-18T20:19:34.876Z,98287.22
2023-02-18T20:22:02.289Z,98295.28
2023-02-18T20:24:29.935Z,98284.53
2023-02-18T20:26:57.464Z,98293.34
2023-02-18T20:29:25.591Z,98298.56
2023-02-18T20:31:53.489Z,98290.66
2023-02-18T20:34:20.573Z,98293.34
2023-02-18T20:36:50.889Z,98299.59
2023-02-18T20:39:18.287Z,98303.84
2023-02-18T20:41:46.521Z,98306.41
2023-02-18T20:44:13.749Z,98306.53
2023-02-18T20:46:40.955Z,98302.03
2023-02-18T20:49:09.033Z,98311.94
2023-02-18T20:51:36.151Z,98311.81
2023-02-18T20:54:04.608Z,98323.44
2023-02-18T20:56:31.672Z,98328.56
2023-02-18T20:58:58.528Z,98328.72
2023-02-18T21:01:25.678Z,98339.34
2023-02-18T21:03:52.430Z,98343.88
2023-02-18T21:06:20.974Z,98346.31
2023-02-18T21:08:48.944Z,98349.88
2023-02-18T21:11:21.010Z,98363.34
2023-02-18T21:13:48.764Z,98359.19
2023-02-18T21:16:16.843Z,98357.81
2023-02-18T21:18:43.709Z,98368.72
2023-02-18T21:21:11.339Z,98368.84
2023-02-18T21:23:38.758Z,98369.47
2023-02-18T21:26:11.405Z,98376.56
2023-02-18T21:28:38.509Z,98361.25
2023-02-18T21:31:06.023Z,98365.78
2023-02-18T21:33:32.829Z,98362.13
2023-02-18T21:36:01.375Z,98371.16
2023-02-18T21:38:28.202Z,98379.25
2023-02-18T21:40:55.289Z,98382.66
2023-02-18T21:43:22.020Z,98399.72
2023-02-18T21:45:49.062Z,98397.75
2023-02-18T21:48:34.493Z,98408.66
2023-02-18T21:51:01.550Z,98417.47
2023-02-18T21:53:28.336Z,98412.78
2023-02-18T21:56:03.712Z,98417.34
2023-02-18T21:58:30.925Z,98413.53
2023-02-18T22:00:58.420Z,98427.41
2023-02-18T22:03:25.390Z,98425.28
2023-02-18T22:05:52.632Z,98433.38
2023-02-18T22:08:19.957Z,98420.63
2023-02-18T22:10:47.246Z,98429.72
2023-02-18T22:13:14.054Z,98426.13
2023-02-18T22:15:42.117Z,98430.56
2023-02-18T22:18:08.994Z,98432.28
2023-02-18T22:20:38.817Z,98447.44
2023-02-18T22:23:05.786Z,98444.03
2023-02-18T22:25:33.019Z,98441.59
2023-02-18T22:27:59.900Z,98472.97
2023-02-18T22:30:27.189Z,98474.78
2023-02-18T22:32:54.106Z,98454.09
2023-02-18T22:35:21.372Z,98478.22
2023-02-18T22:37:48.228Z,98483.88
2023-02-18T22:40:15.518Z,98493.53
2023-02-18T22:42:42.442Z,98498.44
2023-02-18T22:45:09.873Z,98509.09
2023-02-18T22:47:36.679Z,98520.13
2023-02-18T22:50:04.455Z,98522.81
2023-02-18T22:52:31.445Z,98532.03
2023-02-18T22:54:58.537Z,98522.09
2023-02-18T22:57:25.248Z,98514.00
2023-02-18T22:59:52.459Z,98526.63
2023-02-18T23:02:21.243Z,98532.25
2023-02-18T23:04:48.341Z,98521.47
2023-02-18T23:07:15.182Z,98532.38
2023-02-18T23:09:42.340Z,98528.84
2023-02-18T23:12:09.120Z,98528.97
2023-02-18T23:14:36.214Z,98528.13
2023-02-18T23:17:16.649Z,98537.91
2023-02-18T23:19:50.775Z,98545.25
2023-02-18T23:22:19.940Z,98544.53
2023-02-18T23:24:47.137Z,98546.34
2023-02-18T23:27:14.714Z,98556.03
2023-02-18T23:29:41.800Z,98553.47
2023-02-18T23:32:08.822Z,98542.69
2023-02-18T23:34:36.292Z,98541.84
2023-02-18T23:37:03.205Z,98560.81
2023-02-18T23:39:30.439Z,98555.53
2023-02-18T23:41:57.254Z,98546.63
2023-02-18T23:44:24.923Z,98546.72
2023-02-18T23:46:51.861Z,98548.56
2023-02-18T23:49:23.982Z,98543.56
2023-02-18T23:51:51.609Z,98541.09
2023-02-18T23:54:18.942Z,98553.44
2023-02-18T23:56:45.756Z,98555.41
2023-02-18T23:59:12.995Z,98555.78
